createdAt,value
2018-11-12T00:00:21.216Z,98321.04
2018-11-12T00:02:54.976Z,98313.94
2018-11-12T00:05:24.785Z,98315.59
2018-11-12T00:07:54.548Z,98312.69
2018-11-12T00:10:24.259Z,98309.73
2018-11-12T00:12:54.079Z,98320.82
2018-11-12T00:15:23.709Z,98326.84
2018-11-12T00:17:53.353Z,98331.52
2018-11-12T00:20:22.961Z,98333.66
2018-11-12T00:22:52.623Z,98341.75
2018-11-12T00:25:22.317Z,98348.57
2018-11-12T00:27:51.918Z,98352.82
2018-11-12T00:30:21.528Z,98351.11
2018-11-12T00:32:51.155Z,98352.39
2018-11-12T00:35:20.763Z,98347.34
2018-11-12T00:37:50.459Z,98350.31
2018-11-12T00:40:20.079Z,98351.17
2018-11-12T00:42:49.771Z,98355.41
2018-11-12T00:45:19.366Z,98363.86
2018-11-12T00:47:48.966Z,98370.18
2018-11-12T00:50:18.527Z,98377.36
2018-11-12T00:52:48.228Z,98373.98
2018-11-12T00:55:17.821Z,98379.47
2018-11-12T00:57:47.421Z,98382.43
2018-11-12T01:00:18.377Z,98384.55
2018-11-12T01:02:49.394Z,98382.84
2018-11-12T01:05:19.732Z,98384.55
2018-11-12T01:07:49.747Z,98379.06
2018-11-12T01:10:19.977Z,98386.64
2018-11-12T01:12:49.696Z,98382.42
2018-11-12T01:15:20.214Z,98372.28
2018-11-12T01:17:49.895Z,98371.03
2018-11-12T01:20:19.491Z,98374.83
2018-11-12T01:22:49.134Z,98381.15
2018-11-12T01:25:18.749Z,98383.63
2018-11-12T01:27:48.465Z,98385.68
2018-11-12T01:30:19.158Z,98382.27
2018-11-12T01:32:48.914Z,98381.89
2018-11-12T01:35:19.116Z,98381.44
2018-11-12T01:37:48.929Z,98378.50
2018-11-12T01:40:18.525Z,98374.70
2018-11-12T01:42:48.150Z,98374.33
2018-11-12T01:45:20.164Z,98371.38
2018-11-12T01:47:51.027Z,98367.19
2018-11-12T01:50:20.852Z,98366.77
2018-11-12T01:52:50.554Z,98362.53
2018-11-12T01:55:20.560Z,98362.88
2018-11-12T01:57:50.223Z,98354.02
2018-11-12T02:00:22.760Z,98357.83
2018-11-12T02:02:53.252Z,98360.81
2018-11-12T02:05:22.889Z,98353.67
2018-11-12T02:07:52.517Z,98354.52
2018-11-12T02:10:22.163Z,98348.63
2018-11-12T02:12:51.874Z,98347.77
2018-11-12T02:15:21.992Z,98348.19
2018-11-12T02:17:51.670Z,98351.59
2018-11-12T02:20:22.069Z,98356.23
2018-11-12T02:22:52.163Z,98362.13
2018-11-12T02:25:21.749Z,98364.20
2018-11-12T02:27:51.399Z,98363.38
2018-11-12T02:30:26.316Z,98355.36
2018-11-12T02:32:55.924Z,98361.67
2018-11-12T02:35:25.534Z,98359.56
2018-11-12T02:37:55.134Z,98363.38
2018-11-12T02:40:24.787Z,98367.19
2018-11-12T02:42:54.388Z,98365.48
2018-11-12T02:45:24.057Z,98359.16
2018-11-12T02:47:53.627Z,98357.46
2018-11-12T02:50:23.297Z,98349.84
2018-11-12T02:52:52.902Z,98353.17
2018-11-12T02:55:22.484Z,98351.43
2018-11-12T02:57:52.067Z,98352.22
2018-11-12T03:00:22.957Z,98358.10
2018-11-12T03:02:52.626Z,98347.97
2018-11-12T03:05:22.269Z,98342.44
2018-11-12T03:07:51.873Z,98340.73
2018-11-12T03:10:22.708Z,98330.16
2018-11-12T03:12:52.329Z,98329.38
2018-11-12T03:15:22.336Z,98334.45
2018-11-12T03:17:52.554Z,98329.39
2018-11-12T03:20:23.281Z,98329.36
2018-11-12T03:22:52.871Z,98331.83
2018-11-12T03:25:23.020Z,98328.48
2018-11-12T03:27:52.766Z,98329.34
2018-11-12T03:30:23.351Z,98334.00
2018-11-12T03:32:53.685Z,98327.66
2018-11-12T03:35:23.432Z,98330.63
2018-11-12T03:37:53.032Z,98326.88
2018-11-12T03:40:24.249Z,98328.14
2018-11-12T03:42:54.046Z,98331.52
2018-11-12T03:45:24.883Z,98329.03
2018-11-12T03:47:54.527Z,98331.57
2018-11-12T03:50:25.433Z,98332.84
2018-11-12T03:52:55.061Z,98338.34
2018-11-12T03:55:24.771Z,98337.06
2018-11-12T03:57:54.406Z,98334.08
2018-11-12T04:00:30.208Z,98335.36
2018-11-12T04:05:57.108Z,98331.14
2018-11-12T04:08:26.749Z,98329.42
2018-11-12T04:10:56.397Z,98336.62
2018-11-12T04:13:26.003Z,98333.70
2018-11-12T04:15:55.607Z,98322.84
2018-11-12T04:18:25.205Z,98310.13
2018-11-12T04:20:54.844Z,98311.02
2018-11-12T04:23:24.491Z,98303.84
2018-11-12T04:25:54.155Z,98310.16
2018-11-12T04:28:23.759Z,98311.87
2018-11-12T04:30:53.487Z,98304.69
2018-11-12T04:33:23.072Z,98304.70
2018-11-12T04:35:52.686Z,98308.92
2018-11-12T04:38:22.421Z,98304.69
2018-11-12T04:42:16.542Z,98309.73
2018-11-12T04:44:46.183Z,98311.00
2018-11-12T04:47:15.756Z,98320.31
2018-11-12T04:49:45.345Z,98321.56
2018-11-12T04:52:15.221Z,98321.56
2018-11-12T04:54:44.934Z,98316.51
2018-11-12T04:57:14.524Z,98298.78
2018-11-12T04:59:44.238Z,98299.20
2018-11-12T05:02:13.781Z,98299.62
2018-11-12T05:04:43.451Z,98281.03
2018-11-12T05:07:13.022Z,98280.20
2018-11-12T05:09:42.670Z,98282.72
2018-11-12T05:12:12.272Z,98284.41
2018-11-12T05:14:41.988Z,98290.72
2018-11-12T05:17:11.578Z,98279.75
2018-11-12T05:19:41.185Z,98279.34
2018-11-12T05:22:10.882Z,98277.23
2018-11-12T05:24:40.523Z,98283.58
2018-11-12T05:27:10.176Z,98291.59
2018-11-12T05:29:39.865Z,98295.37
2018-11-12T05:32:09.497Z,98285.66
2018-11-12T05:34:39.170Z,98274.23
2018-11-12T05:37:08.859Z,98273.80
2018-11-12T05:39:38.511Z,98267.02
2018-11-12T05:42:08.201Z,98274.23
2018-11-12T05:44:37.928Z,98275.89
2018-11-12T05:47:07.593Z,98272.90
2018-11-12T05:49:37.223Z,98272.05
2018-11-12T05:52:07.060Z,98270.72
2018-11-12T05:54:36.764Z,98265.20
2018-11-12T05:57:06.600Z,98263.50
2018-11-12T05:59:36.333Z,98262.66
2018-11-12T06:02:06.274Z,98266.89
2018-11-12T06:04:36.197Z,98272.00
2018-11-12T06:07:05.905Z,98282.58
2018-11-12T06:09:35.625Z,98287.65
2018-11-12T06:12:05.821Z,98282.96
2018-11-12T06:14:35.552Z,98284.66
2018-11-12T06:17:05.361Z,98292.30
2018-11-12T06:19:35.088Z,98296.97
2018-11-12T06:22:04.997Z,98297.42
2018-11-12T06:24:34.693Z,98303.38
2018-11-12T06:27:04.382Z,98315.21
2018-11-12T06:29:34.150Z,98314.38
2018-11-12T06:32:03.819Z,98313.92
2018-11-12T06:34:33.469Z,98310.56
2018-11-12T06:37:03.132Z,98296.59
2018-11-12T06:39:32.899Z,98291.51
2018-11-12T06:42:02.579Z,98299.97
2018-11-12T06:44:32.294Z,98310.13
2018-11-12T06:47:01.958Z,98310.11
2018-11-12T06:49:31.584Z,98310.95
2018-11-12T06:52:01.221Z,98305.03
2018-11-12T06:54:30.929Z,98305.87
2018-11-12T06:57:00.571Z,98310.11
2018-11-12T06:59:30.236Z,98312.65
2018-11-12T07:01:59.890Z,98302.48
2018-11-12T07:04:29.573Z,98301.23
2018-11-12T07:06:59.279Z,98307.98
2018-11-12T07:09:28.974Z,98315.59
2018-11-12T07:11:58.631Z,98322.77
2018-11-12T07:14:28.279Z,98326.14
2018-11-12T07:16:57.884Z,98311.34
2018-11-12T07:19:27.601Z,98311.73
2018-11-12T07:21:57.226Z,98306.22
2018-11-12T07:24:26.882Z,98299.00
2018-11-12T07:26:56.487Z,98302.79
2018-11-12T07:29:26.157Z,98302.33
2018-11-12T07:31:55.786Z,98290.01
2018-11-12T07:34:25.423Z,98284.06
2018-11-12T07:36:55.050Z,98276.75
2018-11-12T07:39:24.732Z,98270.77
2018-11-12T07:41:54.375Z,98269.88
2018-11-12T07:44:24.072Z,98269.83
2018-11-12T07:46:53.714Z,98262.55
2018-11-12T07:49:23.427Z,98263.36
2018-11-12T07:51:53.023Z,98263.77
2018-11-12T07:54:22.751Z,98270.47
2018-11-12T07:56:52.364Z,98268.73
2018-11-12T07:59:22.108Z,98278.50
2018-11-12T08:01:51.769Z,98286.13
2018-11-12T08:04:21.462Z,98278.96
2018-11-12T08:06:51.115Z,98275.69
2018-11-12T08:09:20.846Z,98292.67
2018-11-12T08:11:50.526Z,98302.05
2018-11-12T08:14:20.179Z,98302.88
2018-11-12T08:16:49.817Z,98306.28
2018-11-12T08:19:19.499Z,98296.96
2018-11-12T08:21:49.192Z,98297.83
2018-11-12T08:24:18.951Z,98308.83
2018-11-12T08:26:48.512Z,98316.02
2018-11-12T08:29:18.257Z,98324.94
2018-11-12T08:31:47.931Z,98330.88
2018-11-12T08:34:17.635Z,98332.17
2018-11-12T08:36:47.292Z,98338.09
2018-11-12T08:39:17.160Z,98344.85
2018-11-12T08:41:46.734Z,98347.44
2018-11-12T08:44:16.382Z,98350.40
2018-11-12T08:46:45.999Z,98349.53
2018-11-12T08:49:15.788Z,98343.58
2018-11-12T08:51:45.372Z,98346.54
2018-11-12T08:54:15.103Z,98343.97
2018-11-12T08:56:44.736Z,98342.25
2018-11-12T08:59:14.486Z,98338.42
2018-11-12T09:01:44.075Z,98329.42
2018-11-12T09:04:13.944Z,98325.61
2018-11-12T09:06:45.992Z,98328.55
2018-11-12T09:09:18.617Z,98323.73
2018-11-12T09:11:48.255Z,98332.23
2018-11-12T09:14:17.919Z,98329.59
2018-11-12T09:16:47.680Z,98343.88
2018-11-12T09:19:17.593Z,98336.20
2018-11-12T09:21:47.244Z,98331.86
2018-11-12T09:24:17.058Z,98342.88
2018-11-12T09:26:46.674Z,98349.70
2018-11-12T09:29:16.366Z,98351.41
2018-11-12T09:31:45.988Z,98357.21
2018-11-12T09:34:15.664Z,98358.48
2018-11-12T09:36:45.364Z,98355.94
2018-11-12T09:39:14.991Z,98358.75
2018-11-12T09:41:44.583Z,98349.22
2018-11-12T09:44:14.259Z,98336.77
2018-11-12T09:46:43.845Z,98339.09
2018-11-12T09:49:13.521Z,98330.14
2018-11-12T09:51:43.094Z,98327.37
2018-11-12T09:54:12.781Z,98327.02
2018-11-12T09:56:42.431Z,98309.07
2018-11-12T09:59:12.067Z,98317.45
2018-11-12T10:01:42.401Z,98313.12
2018-11-12T10:04:12.740Z,98308.45
2018-11-12T10:06:42.362Z,98284.27
2018-11-12T10:14:02.986Z,98300.42
2018-11-12T10:16:34.589Z,98303.80
2018-11-12T10:19:01.171Z,98309.23
2018-11-12T10:21:30.794Z,98319.61
2018-11-12T10:24:00.483Z,98327.27
2018-11-12T10:26:30.064Z,98328.69
2018-11-12T10:28:59.788Z,98334.78
2018-11-12T10:31:29.381Z,98341.17
2018-11-12T10:33:59.090Z,98343.49
2018-11-12T10:36:28.694Z,98346.09
2018-11-12T10:38:58.384Z,98347.11
2018-11-12T10:41:28.053Z,98330.97
2018-11-12T10:43:57.705Z,98308.11
2018-11-12T10:46:27.277Z,98283.02
2018-11-12T10:48:56.866Z,98311.77
2018-11-12T10:51:26.940Z,98300.52
2018-11-12T10:53:56.594Z,98302.88
2018-11-12T10:56:26.164Z,98300.59
2018-11-12T10:58:55.901Z,98292.47
2018-11-12T11:01:31.694Z,98259.58
2018-11-12T11:04:06.517Z,98281.03
2018-11-12T11:06:36.148Z,98291.58
2018-11-12T11:09:08.632Z,98298.81
2018-11-12T11:11:38.233Z,98298.35
2018-11-12T11:14:07.858Z,98301.81
2018-11-12T11:16:37.459Z,98309.34
2018-11-12T11:19:08.032Z,98327.01
2018-11-12T11:21:37.883Z,98323.17
2018-11-12T11:24:07.732Z,98317.84
2018-11-12T11:26:37.353Z,98317.44
2018-11-12T11:29:07.097Z,98317.89
2018-11-12T11:31:36.671Z,98312.79
2018-11-12T11:34:06.441Z,98320.94
2018-11-12T11:36:36.031Z,98314.23
2018-11-12T11:39:08.179Z,98333.41
2018-11-12T11:41:37.806Z,98340.66
2018-11-12T11:44:07.635Z,98352.14
2018-11-12T11:46:37.247Z,98351.26
2018-11-12T11:49:07.084Z,98349.03
2018-11-12T11:51:36.698Z,98356.77
2018-11-12T11:54:06.744Z,98348.72
2018-11-12T11:56:36.451Z,98359.70
2018-11-12T11:59:06.091Z,98343.86
2018-11-12T12:01:35.689Z,98363.08
2018-11-12T12:04:05.402Z,98362.05
2018-11-12T12:06:35.033Z,98352.22
2018-11-12T12:09:05.999Z,98347.39
2018-11-12T12:11:35.607Z,98348.34
2018-11-12T12:14:05.511Z,98356.50
2018-11-12T12:16:35.096Z,98355.13
2018-11-12T12:19:04.873Z,98357.33
2018-11-12T12:21:34.477Z,98368.83
2018-11-12T12:24:04.178Z,98377.33
2018-11-12T12:26:33.790Z,98378.20
2018-11-12T12:29:03.427Z,98391.88
2018-11-12T12:31:33.091Z,98413.73
2018-11-12T12:34:02.793Z,98415.40
2018-11-12T12:36:32.419Z,98433.11
2018-11-12T12:39:02.066Z,98418.95
2018-11-12T12:41:31.663Z,98434.98
2018-11-12T12:44:01.283Z,98416.26
2018-11-12T12:46:30.865Z,98385.85
2018-11-12T12:49:00.566Z,98382.85
2018-11-12T12:51:30.263Z,98364.91
2018-11-12T12:53:59.819Z,98333.55
2018-11-12T13:05:23.323Z,98332.80
2018-11-12T13:07:53.000Z,98340.41
2018-11-12T13:10:23.577Z,98325.53
2018-11-12T13:12:53.226Z,98295.67
2018-11-12T13:15:22.893Z,98301.63
2018-11-12T13:17:53.011Z,98311.45
2018-11-12T13:20:24.053Z,98301.14
2018-11-12T13:22:53.700Z,98324.32
2018-11-12T13:25:23.336Z,98331.23
2018-11-12T13:27:53.009Z,98345.09
2018-11-12T13:30:23.702Z,98351.22
2018-11-12T13:32:53.643Z,98369.16
2018-11-12T13:35:24.581Z,98362.79
2018-11-12T13:37:54.485Z,98368.38
2018-11-12T13:40:25.305Z,98355.95
2018-11-12T13:42:56.458Z,98358.12
2018-11-12T13:45:26.577Z,98355.17
2018-11-12T13:47:57.004Z,98363.72
2018-11-12T13:50:27.735Z,98359.83
2018-11-12T13:52:58.103Z,98357.27
2018-11-12T13:55:27.669Z,98352.55
2018-11-12T13:57:57.306Z,98365.41
2018-11-12T14:00:29.195Z,98371.79
2018-11-12T14:02:59.268Z,98367.88
2018-11-12T14:05:29.478Z,98364.45
2018-11-12T14:07:59.177Z,98357.59
2018-11-12T14:10:29.910Z,98353.70
2018-11-12T14:13:00.364Z,98372.55
2018-11-12T14:15:29.979Z,98372.93
2018-11-12T14:17:59.592Z,98388.30
2018-11-12T14:20:29.343Z,98381.48
2018-11-12T14:22:58.897Z,98374.27
2018-11-12T14:25:28.526Z,98371.59
2018-11-12T14:27:58.542Z,98404.55
2018-11-12T14:30:29.539Z,98412.45
2018-11-12T14:32:59.459Z,98418.89
2018-11-12T14:35:29.800Z,98403.40
2018-11-12T14:37:59.596Z,98370.71
2018-11-12T14:40:29.239Z,98366.81
2018-11-12T14:42:58.951Z,98376.67
2018-11-12T14:45:28.588Z,98375.33
2018-11-12T14:47:58.299Z,98368.73
2018-11-12T14:50:27.924Z,98363.26
2018-11-12T14:52:57.606Z,98366.44
2018-11-12T14:55:27.263Z,98379.37
2018-11-12T14:57:57.023Z,98383.47
2018-11-12T15:00:27.285Z,98426.97
2018-11-12T15:02:56.937Z,98421.08
2018-11-12T15:05:26.918Z,98419.88
2018-11-12T15:07:56.691Z,98439.59
2018-11-12T15:10:26.325Z,98432.20
2018-11-12T15:12:55.960Z,98407.31
2018-11-12T15:15:25.576Z,98394.92
2018-11-12T15:17:55.290Z,98400.94
2018-11-12T15:20:24.919Z,98397.66
2018-11-12T15:22:54.983Z,98395.20
2018-11-12T15:25:25.875Z,98398.79
2018-11-12T15:27:55.530Z,98400.20
2018-11-12T15:30:25.861Z,98401.95
2018-11-12T15:32:56.370Z,98422.75
2018-11-12T15:35:25.955Z,98425.90
2018-11-12T15:37:55.566Z,98454.17
2018-11-12T15:40:25.205Z,98462.09
2018-11-12T15:42:54.817Z,98469.53
2018-11-12T15:45:25.547Z,98475.57
2018-11-12T15:47:55.139Z,98487.30
2018-11-12T15:50:29.335Z,98502.30
2018-11-12T15:52:59.035Z,98500.70
2018-11-12T15:55:28.696Z,98513.52
2018-11-12T15:57:58.505Z,98515.77
2018-11-12T16:00:28.205Z,98524.31
2018-11-12T16:02:57.799Z,98532.45
2018-11-12T16:05:27.510Z,98535.91
2018-11-12T16:07:57.197Z,98547.86
2018-11-12T16:10:26.892Z,98540.06
2018-11-12T16:12:56.528Z,98541.65
2018-11-12T16:15:26.175Z,98546.09
2018-11-12T16:17:55.737Z,98551.24
2018-11-12T16:20:28.355Z,98550.45
2018-11-12T16:22:59.071Z,98564.91
2018-11-12T16:25:29.329Z,98563.16
2018-11-12T16:27:59.098Z,98560.13
2018-11-12T16:30:28.787Z,98545.22
2018-11-12T16:32:58.437Z,98541.40
2018-11-12T16:35:28.200Z,98535.93
2018-11-12T16:37:57.823Z,98544.38
2018-11-12T16:40:27.502Z,98529.09
2018-11-12T16:42:57.126Z,98514.53
2018-11-12T16:45:26.815Z,98513.25
2018-11-12T16:47:56.472Z,98520.89
2018-11-12T16:50:26.142Z,98517.98
2018-11-12T16:52:55.776Z,98526.92
2018-11-12T16:55:25.439Z,98533.35
2018-11-12T16:57:55.071Z,98530.80
2018-11-12T17:00:25.394Z,98533.81
2018-11-12T17:02:55.060Z,98533.30
2018-11-12T17:05:25.317Z,98537.61
2018-11-12T17:07:55.279Z,98532.11
2018-11-12T17:10:26.003Z,98533.79
2018-11-12T17:12:55.664Z,98521.23
2018-11-12T17:15:25.299Z,98509.66
2018-11-12T17:17:54.990Z,98514.94
2018-11-12T17:20:24.647Z,98558.98
2018-11-12T17:22:54.288Z,98560.23
2018-11-12T17:25:23.951Z,98531.55
2018-11-12T17:27:53.611Z,98554.63
2018-11-12T17:30:23.270Z,98552.08
2018-11-12T17:32:52.931Z,98544.80
2018-11-12T17:35:23.244Z,98514.42
2018-11-12T17:37:53.027Z,98537.45
2018-11-12T17:40:25.595Z,98523.89
2018-11-12T17:42:56.241Z,98526.08
2018-11-12T17:45:27.172Z,98523.78
2018-11-12T17:47:57.709Z,98558.88
2018-11-12T17:50:27.389Z,98581.29
2018-11-12T17:52:57.079Z,98599.80
2018-11-12T17:55:26.683Z,98590.98
2018-11-12T17:57:56.355Z,98598.53
2018-11-12T18:00:29.181Z,98594.84
2018-11-12T18:02:58.846Z,98623.30
2018-11-12T18:05:28.430Z,98662.03
2018-11-12T18:07:58.128Z,98666.11
2018-11-12T18:10:27.696Z,98660.39
2018-11-12T18:12:57.317Z,98668.41
2018-11-12T18:15:26.914Z,98665.72
2018-11-12T18:17:56.587Z,98686.88
2018-11-12T18:20:27.411Z,98689.01
2018-11-12T18:22:57.702Z,98669.91
2018-11-12T18:25:27.304Z,98673.70
2018-11-12T18:27:57.361Z,98674.57
2018-11-12T18:30:28.600Z,98670.75
2018-11-12T18:33:03.826Z,98666.08
2018-11-12T18:35:33.470Z,98673.70
2018-11-12T18:38:03.198Z,98681.78
2018-11-12T18:40:32.825Z,98671.59
2018-11-12T18:43:02.480Z,98695.45
2018-11-12T18:45:32.068Z,98680.09
2018-11-12T18:48:01.702Z,98698.39
2018-11-12T18:50:31.816Z,98703.46
2018-11-12T18:53:01.536Z,98691.56
2018-11-12T18:55:31.215Z,98698.75
2018-11-12T18:58:01.026Z,98690.23
2018-11-12T19:00:30.650Z,98755.25
2018-11-12T19:03:00.274Z,98768.37
2018-11-12T19:05:30.207Z,98755.98
2018-11-12T19:08:01.172Z,98744.54
2018-11-12T19:10:32.258Z,98728.77
2018-11-12T19:13:01.998Z,98727.92
2018-11-12T19:15:33.342Z,98728.32
2018-11-12T19:18:06.184Z,98723.19
2018-11-12T19:20:35.787Z,98715.16
2018-11-12T19:23:05.753Z,98716.45
2018-11-12T19:25:35.397Z,98722.84
2018-11-12T19:28:05.132Z,98739.00
2018-11-12T19:30:34.793Z,98750.93
2018-11-12T19:33:04.564Z,98763.28
2018-11-12T19:35:34.228Z,98772.17
2018-11-12T19:38:03.913Z,98785.75
2018-11-12T19:40:33.855Z,98782.78
2018-11-12T19:43:03.554Z,98783.64
2018-11-12T19:45:33.218Z,98792.11
2018-11-12T19:48:08.432Z,98795.91
2018-11-12T19:50:38.138Z,98790.77
2018-11-12T19:53:07.829Z,98789.45
2018-11-12T19:55:37.443Z,98788.11
2018-11-12T19:58:07.343Z,98785.94
2018-11-12T20:00:37.008Z,98780.43
2018-11-12T20:03:06.807Z,98771.56
2018-11-12T20:05:51.865Z,98772.83
2018-11-12T20:17:26.313Z,98762.86
2018-11-12T20:19:55.929Z,98762.03
2018-11-12T20:22:25.818Z,98763.31
2018-11-12T20:24:55.568Z,98762.03
2018-11-12T20:27:25.720Z,98756.53
2018-11-12T20:29:55.412Z,98750.58
2018-11-12T20:32:25.097Z,98755.69
2018-11-12T20:34:54.843Z,98756.94
2018-11-12T20:37:24.715Z,98758.21
2018-11-12T20:39:54.411Z,98759.91
2018-11-12T20:42:24.117Z,98766.27
2018-11-12T20:44:54.146Z,98766.27
2018-11-12T20:47:24.105Z,98756.52
2018-11-12T20:49:53.955Z,98759.92
2018-11-12T20:52:23.741Z,98757.38
2018-11-12T20:54:53.488Z,98752.29
2018-11-12T20:57:23.590Z,98762.02
2018-11-12T20:59:53.865Z,98767.51
2018-11-12T21:02:23.604Z,98766.69
2018-11-12T21:04:53.509Z,98758.23
2018-11-12T21:07:23.345Z,98759.48
2018-11-12T21:09:53.078Z,98760.33
2018-11-12T21:12:23.055Z,98762.88
2018-11-12T21:14:52.800Z,98762.88
2018-11-12T21:17:22.656Z,98761.19
2018-11-12T21:19:52.397Z,98760.77
2018-11-12T21:22:22.261Z,98757.81
2018-11-12T21:24:52.255Z,98765.86
2018-11-12T21:27:22.037Z,98761.63
2018-11-12T21:29:51.973Z,98765.84
2018-11-12T21:32:21.733Z,98752.70
2018-11-12T21:37:50.207Z,98743.80
2018-11-12T21:43:17.340Z,98753.95
2018-11-12T21:45:46.946Z,98759.93
2018-11-12T21:48:16.626Z,98764.58
2018-11-12T21:50:46.511Z,98776.44
2018-11-12T21:53:16.196Z,98795.03
2018-11-12T21:55:45.909Z,98803.82
2018-11-12T21:58:15.730Z,98804.66
2018-11-12T22:00:45.492Z,98802.56
2018-11-12T22:03:15.190Z,98803.48
2018-11-12T22:05:45.023Z,98802.98
2018-11-12T22:08:14.784Z,98811.45
2018-11-12T22:10:44.561Z,98815.70
2018-11-12T22:13:14.190Z,98825.40
2018-11-12T22:15:43.887Z,98811.02
2018-11-12T22:18:13.535Z,98796.33
2018-11-12T22:20:43.372Z,98795.05
2018-11-12T22:23:12.992Z,98780.20
2018-11-12T22:25:42.829Z,98782.34
2018-11-12T22:28:12.612Z,98795.90
2018-11-12T22:30:42.314Z,98784.88
2018-11-12T22:33:12.039Z,98786.17
2018-11-12T22:35:41.828Z,98791.22
2018-11-12T22:38:11.521Z,98790.78
2018-11-12T22:40:41.370Z,98787.83
2018-11-12T22:43:11.114Z,98798.41
2018-11-12T22:45:40.929Z,98789.98
2018-11-12T22:48:10.981Z,98780.25
2018-11-12T22:50:40.781Z,98780.66
2018-11-12T22:53:10.733Z,98782.34
2018-11-12T22:55:40.520Z,98777.26
2018-11-12T22:58:10.189Z,98774.73
2018-11-12T23:00:40.960Z,98768.80
2018-11-12T23:03:10.658Z,98766.64
2018-11-12T23:05:40.356Z,98767.05
2018-11-12T23:08:10.022Z,98771.66
2018-11-12T23:10:39.699Z,98774.19
2018-11-12T23:13:09.383Z,98764.91
2018-11-12T23:15:39.085Z,98771.20
2018-11-12T23:18:08.760Z,98765.31
2018-11-12T23:20:38.718Z,98763.64
2018-11-12T23:23:08.579Z,98763.28
2018-11-12T23:25:38.352Z,98764.95
2018-11-12T23:28:08.071Z,98760.72
2018-11-12T23:30:37.837Z,98756.84
2018-11-12T23:33:07.550Z,98760.66
2018-11-12T23:35:37.282Z,98768.26
2018-11-12T23:38:06.997Z,98766.09
2018-11-12T23:40:36.763Z,98771.99
2018-11-12T23:43:06.892Z,98769.39
2018-11-12T23:45:36.677Z,98770.22
2018-11-12T23:48:06.527Z,98770.29
2018-11-12T23:50:36.123Z,98764.77
2018-11-12T23:53:06.240Z,98769.83
2018-11-12T23:55:36.001Z,98777.02
2018-11-12T23:58:05.805Z,98780.81
